createdAt,value
2023-03-12T00:01:20.341Z,96.93
2023-03-12T00:03:48.407Z,96.97
2023-03-12T00:06:15.392Z,97.75
2023-03-12T00:08:42.889Z,97.57
2023-03-12T00:11:11.196Z,97.12
2023-03-12T00:13:38.119Z,97.36
2023-03-12T00:16:10.079Z,97.60
2023-03-12T00:18:37.127Z,97.38
2023-03-12T00:21:04.175Z,97.29
2023-03-12T00:23:30.774Z,96.48
2023-03-12T00:26:05.933Z,96.67
2023-03-12T00:28:33.086Z,95.78
2023-03-12T00:30:59.496Z,94.81
2023-03-12T00:33:27.123Z,94.37
2023-03-12T00:35:54.309Z,94.40
2023-03-12T00:38:21.021Z,94.28
2023-03-12T00:40:47.576Z,94.62
2023-03-12T00:43:14.417Z,94.83
2023-03-12T00:45:40.739Z,95.51
2023-03-12T00:48:07.060Z,95.76
2023-03-12T00:50:34.233Z,95.71
2023-03-12T00:53:00.577Z,95.91
2023-03-12T00:55:26.932Z,96.24
2023-03-12T00:57:53.249Z,96.59
2023-03-12T01:00:19.781Z,96.90
2023-03-12T01:02:46.084Z,96.92
2023-03-12T01:05:13.429Z,97.01
2023-03-12T01:07:40.034Z,97.03
2023-03-12T01:10:07.651Z,96.58
2023-03-12T01:12:34.104Z,96.23
2023-03-12T01:15:01.393Z,95.99
2023-03-12T01:17:27.715Z,95.83
2023-03-12T01:19:54.000Z,96.14
2023-03-12T01:22:20.316Z,96.00
2023-03-12T01:24:46.605Z,95.96
2023-03-12T01:27:12.969Z,95.94
2023-03-12T01:29:39.285Z,95.84
2023-03-12T01:32:06.094Z,95.77
2023-03-12T01:34:32.392Z,95.66
2023-03-12T01:36:58.984Z,95.36
2023-03-12T01:39:25.282Z,95.30
2023-03-12T01:41:51.750Z,95.27
2023-03-12T01:44:18.167Z,95.23
2023-03-12T01:46:45.129Z,95.04
2023-03-12T01:49:16.976Z,94.90
2023-03-12T01:51:52.302Z,94.99
2023-03-12T01:54:23.430Z,94.95
2023-03-12T01:56:50.616Z,94.78
2023-03-12T01:59:24.729Z,94.69
2023-03-12T02:01:51.300Z,94.69
2023-03-12T02:04:24.049Z,94.66
2023-03-12T02:07:02.902Z,94.78
2023-03-12T02:09:34.538Z,94.67
2023-03-12T02:12:01.092Z,94.56
2023-03-12T02:14:27.607Z,94.55
2023-03-12T02:16:55.395Z,94.53
2023-03-12T02:19:47.561Z,94.28
2023-03-12T02:22:15.454Z,94.25
2023-03-12T02:24:52.522Z,94.49
2023-03-12T02:27:21.104Z,94.65
2023-03-12T02:29:47.550Z,94.87
2023-03-12T02:32:26.028Z,95.13
2023-03-12T02:34:52.381Z,95.22
2023-03-12T02:37:19.682Z,95.30
2023-03-12T02:39:59.999Z,94.98
2023-03-12T02:42:26.635Z,95.14
2023-03-12T02:44:53.849Z,95.13
2023-03-12T02:47:20.184Z,94.80
2023-03-12T02:49:46.474Z,94.31
2023-03-12T02:52:12.834Z,94.49
2023-03-12T02:54:39.147Z,94.65
2023-03-12T02:57:05.462Z,94.49
2023-03-12T02:59:31.794Z,94.71
2023-03-12T03:01:59.656Z,94.62
2023-03-12T03:04:28.673Z,94.74
2023-03-12T03:06:55.294Z,95.14
2023-03-12T03:09:21.888Z,95.04
2023-03-12T03:11:49.384Z,95.13
2023-03-12T03:14:15.828Z,95.07
2023-03-12T03:16:42.159Z,95.06
2023-03-12T03:19:08.515Z,94.89
2023-03-12T03:21:34.840Z,94.52
2023-03-12T03:24:01.221Z,94.88
2023-03-12T03:26:27.657Z,94.88
2023-03-12T03:28:54.066Z,95.04
2023-03-12T03:31:21.001Z,94.29
2023-03-12T03:33:48.196Z,94.31
2023-03-12T03:36:15.099Z,94.11
2023-03-12T03:38:42.405Z,93.50
2023-03-12T03:41:08.726Z,93.13
2023-03-12T03:43:35.018Z,93.42
2023-03-12T03:46:05.742Z,92.87
2023-03-12T03:48:32.880Z,92.66
2023-03-12T03:51:04.587Z,92.34
2023-03-12T03:53:31.417Z,92.10
2023-03-12T03:55:57.887Z,92.25
2023-03-12T03:58:24.494Z,92.40
2023-03-12T04:00:50.873Z,92.34
2023-03-12T04:03:17.393Z,92.28
2023-03-12T04:05:43.759Z,92.48
2023-03-12T04:08:10.200Z,92.46
2023-03-12T04:10:37.153Z,92.36
2023-03-12T04:13:03.523Z,92.54
2023-03-12T04:15:29.838Z,93.23
2023-03-12T04:17:56.227Z,93.65
2023-03-12T04:20:22.576Z,93.71
2023-03-12T04:22:48.930Z,93.62
2023-03-12T04:25:15.242Z,93.59
2023-03-12T04:27:41.547Z,92.98
2023-03-12T04:30:08.717Z,92.95
2023-03-12T04:32:35.110Z,92.85
2023-03-12T04:35:01.456Z,92.78
2023-03-12T04:37:27.773Z,92.91
2023-03-12T04:39:54.077Z,93.24
2023-03-12T04:42:20.387Z,93.35
2023-03-12T04:44:46.713Z,93.17
2023-03-12T04:47:13.048Z,93.10
2023-03-12T04:49:39.365Z,92.85
2023-03-12T04:52:06.092Z,92.49
2023-03-12T04:54:32.501Z,92.29
2023-03-12T04:56:58.834Z,91.77
2023-03-12T04:59:25.187Z,91.70
2023-03-12T05:01:51.538Z,92.06
2023-03-12T05:04:17.856Z,92.04
2023-03-12T05:06:44.169Z,92.11
2023-03-12T05:09:10.467Z,91.54
2023-03-12T05:11:39.199Z,91.64
2023-03-12T05:14:06.069Z,91.25
2023-03-12T05:16:32.677Z,91.00
2023-03-12T05:18:59.020Z,90.79
2023-03-12T05:21:25.381Z,90.71
2023-03-12T05:23:51.784Z,90.98
2023-03-12T05:26:19.861Z,90.78
2023-03-12T05:28:46.674Z,90.53
2023-03-12T05:31:14.289Z,90.10
2023-03-12T05:33:41.297Z,90.05
2023-03-12T05:36:08.628Z,89.90
2023-03-12T05:38:35.195Z,90.11
2023-03-12T05:41:01.706Z,89.92
2023-03-12T05:43:28.478Z,89.87
2023-03-12T05:45:59.436Z,89.96
2023-03-12T05:48:26.258Z,90.03
2023-03-12T05:50:52.565Z,89.87
2023-03-12T05:53:18.917Z,89.35
2023-03-12T05:55:45.219Z,89.30
2023-03-12T05:58:11.602Z,89.17
2023-03-12T06:00:37.965Z,89.19
2023-03-12T06:03:05.667Z,88.59
2023-03-12T06:05:33.486Z,88.53
2023-03-12T06:08:00.198Z,88.56
2023-03-12T06:10:27.368Z,88.72
2023-03-12T06:12:54.084Z,88.46
2023-03-12T06:15:20.543Z,88.34
2023-03-12T06:17:46.874Z,87.85
2023-03-12T06:20:13.323Z,86.94
2023-03-12T06:22:39.652Z,86.00
2023-03-12T06:25:06.573Z,85.61
2023-03-12T06:27:33.133Z,85.78
2023-03-12T06:29:59.436Z,85.61
2023-03-12T06:32:25.986Z,85.37
2023-03-12T06:34:52.343Z,85.16
2023-03-12T06:37:18.671Z,85.40
2023-03-12T06:39:44.964Z,85.25
2023-03-12T06:42:11.295Z,84.94
2023-03-12T06:44:37.586Z,84.86
2023-03-12T06:47:04.088Z,84.29
2023-03-12T06:49:30.406Z,83.72
2023-03-12T06:51:56.721Z,83.66
2023-03-12T06:54:23.031Z,83.23
2023-03-12T06:56:49.370Z,82.16
2023-03-12T06:59:15.869Z,82.78
2023-03-12T07:01:42.174Z,83.25
2023-03-12T07:04:08.509Z,82.80
2023-03-12T07:06:34.843Z,82.46
2023-03-12T07:09:13.058Z,82.15
2023-03-12T07:11:39.375Z,80.46
2023-03-12T07:14:05.683Z,81.11
2023-03-12T07:16:32.072Z,81.27
2023-03-12T07:18:58.433Z,81.94
2023-03-12T07:21:24.732Z,81.03
2023-03-12T07:23:51.934Z,80.95
2023-03-12T07:26:19.328Z,80.46
2023-03-12T07:28:45.999Z,79.21
2023-03-12T07:31:12.566Z,80.15
2023-03-12T07:33:39.149Z,80.25
2023-03-12T07:36:06.071Z,80.67
2023-03-12T07:38:32.453Z,79.96
2023-03-12T07:40:59.277Z,79.88
2023-03-12T07:43:25.969Z,79.80
2023-03-12T07:45:52.600Z,79.38
2023-03-12T07:48:18.987Z,79.77
2023-03-12T07:50:46.088Z,80.59
2023-03-12T07:53:12.471Z,79.74
2023-03-12T07:55:38.983Z,80.09
2023-03-12T07:58:05.374Z,80.28
2023-03-12T08:00:32.228Z,80.29
2023-03-12T08:02:58.754Z,78.98
2023-03-12T08:05:25.210Z,78.72
2023-03-12T08:07:52.514Z,78.45
2023-03-12T08:10:20.245Z,77.14
2023-03-12T08:12:46.699Z,75.74
2023-03-12T08:15:13.341Z,75.61
2023-03-12T08:17:39.936Z,74.70
2023-03-12T08:20:07.034Z,74.37
2023-03-12T08:22:33.326Z,74.53
2023-03-12T08:24:59.652Z,74.05
2023-03-12T08:27:26.148Z,73.41
2023-03-12T08:29:52.503Z,73.12
2023-03-12T08:32:18.961Z,73.80
2023-03-12T08:34:45.580Z,73.82
2023-03-12T08:37:11.916Z,72.74
2023-03-12T08:39:38.357Z,72.81
2023-03-12T08:42:04.937Z,71.77
2023-03-12T08:44:31.269Z,70.45
2023-03-12T08:46:57.585Z,71.31
2023-03-12T08:49:23.950Z,71.74
2023-03-12T08:51:50.780Z,72.38
2023-03-12T08:54:18.224Z,71.71
2023-03-12T08:56:44.758Z,72.46
2023-03-12T08:59:12.146Z,73.21
2023-03-12T09:01:41.142Z,71.29
2023-03-12T09:04:08.924Z,72.34
2023-03-12T09:06:35.259Z,72.90
2023-03-12T09:09:02.596Z,73.89
2023-03-12T09:11:28.884Z,73.99
2023-03-12T09:14:28.040Z,74.86
2023-03-12T09:16:41.524Z,73.39
2023-03-12T09:19:07.914Z,71.76
2023-03-12T09:21:34.270Z,71.39
2023-03-12T09:24:00.623Z,71.76
2023-03-12T09:26:26.979Z,71.98
2023-03-12T09:28:53.286Z,72.04
2023-03-12T09:31:19.906Z,73.90
2023-03-12T09:33:46.343Z,74.56
2023-03-12T09:36:12.688Z,75.53
2023-03-12T09:38:39.037Z,76.80
2023-03-12T09:41:12.870Z,76.26
2023-03-12T09:43:42.818Z,77.24
2023-03-12T09:46:17.787Z,78.38
2023-03-12T09:48:47.647Z,79.63
2023-03-12T09:51:20.507Z,79.97
2023-03-12T09:53:51.878Z,79.50
2023-03-12T09:56:20.797Z,79.30
2023-03-12T09:58:48.423Z,79.33
2023-03-12T10:01:32.239Z,79.41
2023-03-12T10:04:16.593Z,80.84
2023-03-12T10:06:52.100Z,82.53
2023-03-12T10:09:57.330Z,83.62
2023-03-12T10:12:38.750Z,83.54
2023-03-12T10:15:15.057Z,83.76
2023-03-12T10:18:06.083Z,84.78
2023-03-12T10:20:49.547Z,84.05
2023-03-12T10:23:37.501Z,84.03
2023-03-12T10:26:13.457Z,82.85
2023-03-12T10:28:54.581Z,83.98
2023-03-12T10:31:27.757Z,84.73
2023-03-12T10:34:00.030Z,86.32
2023-03-12T10:36:38.164Z,87.51
2023-03-12T10:39:13.392Z,88.48
2023-03-12T10:41:43.402Z,89.11
2023-03-12T10:44:18.134Z,90.36
2023-03-12T10:47:18.616Z,90.49
2023-03-12T10:49:44.965Z,91.47
2023-03-12T10:52:21.786Z,91.54
2023-03-12T10:54:50.067Z,91.68
2023-03-12T10:57:17.004Z,91.79
2023-03-12T10:59:47.256Z,92.46
2023-03-12T11:02:37.303Z,93.49
2023-03-12T11:05:20.908Z,94.18
2023-03-12T11:07:47.409Z,96.12
2023-03-12T11:10:38.390Z,96.74
2023-03-12T11:13:20.763Z,96.89
2023-03-12T11:15:47.554Z,97.58
2023-03-12T11:18:36.668Z,100.00
2023-03-12T11:21:08.827Z,98.43
2023-03-12T11:23:46.848Z,97.15
2023-03-12T11:26:19.888Z,97.23
2023-03-12T11:28:52.395Z,97.24
2023-03-12T11:31:53.292Z,96.97
2023-03-12T11:34:27.813Z,96.63
2023-03-12T11:37:10.343Z,96.96
2023-03-12T11:40:15.428Z,98.69
2023-03-12T11:43:10.117Z,98.42
2023-03-12T11:45:50.577Z,98.90
2023-03-12T11:48:25.805Z,99.50
2023-03-12T11:50:58.156Z,99.51
2023-03-12T11:53:48.883Z,100.00
2023-03-12T11:56:26.932Z,100.00
2023-03-12T11:59:33.089Z,99.73
2023-03-12T12:02:31.040Z,100.00
2023-03-12T12:05:22.412Z,100.00
2023-03-12T12:08:32.763Z,100.00
2023-03-12T12:11:22.880Z,100.00
2023-03-12T12:13:55.626Z,100.00
2023-03-12T12:16:51.158Z,100.00
2023-03-12T12:19:27.414Z,100.00
2023-03-12T12:22:01.459Z,100.00
2023-03-12T12:24:58.997Z,100.00
2023-03-12T12:27:49.114Z,100.00
2023-03-12T12:30:23.273Z,100.00
2023-03-12T12:33:15.743Z,100.00
2023-03-12T12:35:43.562Z,100.00
2023-03-12T12:38:28.922Z,100.00
2023-03-12T12:41:03.571Z,100.00
2023-03-12T12:43:33.843Z,100.00
2023-03-12T12:46:04.196Z,100.00
2023-03-12T12:48:36.438Z,100.00
2023-03-12T12:51:07.554Z,100.00
2023-03-12T12:53:52.304Z,100.00
2023-03-12T12:56:52.863Z,100.00
2023-03-12T12:59:38.173Z,100.00
2023-03-12T13:02:15.186Z,100.00
2023-03-12T13:04:42.657Z,100.00
2023-03-12T13:07:11.690Z,100.00
2023-03-12T13:09:49.906Z,100.00
2023-03-12T13:12:29.671Z,100.00
2023-03-12T13:14:58.133Z,100.00
2023-03-12T13:17:53.333Z,100.00
2023-03-12T13:20:21.244Z,100.00
2023-03-12T13:23:11.890Z,100.00
2023-03-12T13:26:00.136Z,100.00
2023-03-12T13:28:26.413Z,100.00
2023-03-12T13:30:53.928Z,100.00
2023-03-12T13:33:38.862Z,100.00
2023-03-12T13:36:17.232Z,100.00
2023-03-12T13:38:58.669Z,100.00
2023-03-12T13:41:41.684Z,100.00
2023-03-12T13:44:23.026Z,100.00
2023-03-12T13:47:11.050Z,100.00
2023-03-12T13:49:56.284Z,100.00
2023-03-12T13:52:24.873Z,100.00
2023-03-12T13:55:00.995Z,100.00
2023-03-12T13:57:38.979Z,100.00
2023-03-12T14:00:15.182Z,100.00
2023-03-12T14:03:04.781Z,100.00
2023-03-12T14:05:42.880Z,100.00
2023-03-12T14:08:27.537Z,100.00
2023-03-12T14:11:03.102Z,100.00
2023-03-12T14:13:39.568Z,100.00
2023-03-12T14:16:17.465Z,100.00
2023-03-12T14:18:45.167Z,100.00
2023-03-12T14:21:15.846Z,100.00
2023-03-12T14:23:54.039Z,100.00
2023-03-12T14:26:24.803Z,100.00
2023-03-12T14:28:58.649Z,100.00
2023-03-12T14:31:25.824Z,100.00
2023-03-12T14:34:01.716Z,100.00
2023-03-12T14:36:37.219Z,100.00
2023-03-12T14:39:32.161Z,100.00
2023-03-12T14:42:00.617Z,100.00
2023-03-12T14:44:29.272Z,100.00
2023-03-12T14:46:59.489Z,100.00
2023-03-12T14:49:26.282Z,100.00
2023-03-12T14:51:53.500Z,100.00
2023-03-12T14:54:22.813Z,100.00
2023-03-12T14:56:49.913Z,100.00
2023-03-12T14:59:31.067Z,100.00
2023-03-12T15:02:18.574Z,100.00
2023-03-12T15:04:45.640Z,100.00
2023-03-12T15:07:15.205Z,100.00
2023-03-12T15:09:47.461Z,100.00
2023-03-12T15:12:23.402Z,100.00
2023-03-12T15:14:54.796Z,100.00
2023-03-12T15:17:24.011Z,100.00
2023-03-12T15:19:50.652Z,100.00
2023-03-12T15:22:20.944Z,100.00
2023-03-12T15:24:47.636Z,100.00
2023-03-12T15:27:21.556Z,100.00
2023-03-12T15:29:47.908Z,100.00
2023-03-12T15:32:16.144Z,100.00
2023-03-12T15:34:43.026Z,100.00
2023-03-12T15:37:25.004Z,100.00
2023-03-12T15:39:53.139Z,100.00
2023-03-12T15:42:23.686Z,100.00
2023-03-12T15:45:02.237Z,100.00
2023-03-12T15:47:31.683Z,100.00
2023-03-12T15:50:12.956Z,100.00
2023-03-12T15:52:39.301Z,100.00
2023-03-12T15:55:29.004Z,100.00
2023-03-12T15:57:57.008Z,100.00
2023-03-12T16:00:31.176Z,100.00
2023-03-12T16:02:58.939Z,100.00
2023-03-12T16:05:29.198Z,100.00
2023-03-12T16:07:55.635Z,100.00
2023-03-12T16:10:24.241Z,100.00
2023-03-12T16:12:57.881Z,100.00
2023-03-12T16:15:30.561Z,100.00
2023-03-12T16:17:57.002Z,100.00
2023-03-12T16:20:23.285Z,100.00
2023-03-12T16:22:49.589Z,100.00
2023-03-12T16:25:15.999Z,100.00
2023-03-12T16:27:49.666Z,100.00
2023-03-12T16:30:20.486Z,100.00
2023-03-12T16:32:47.035Z,100.00
2023-03-12T16:35:16.280Z,100.00
2023-03-12T16:37:43.278Z,100.00
2023-03-12T16:40:11.875Z,100.00
2023-03-12T16:42:49.317Z,100.00
2023-03-12T16:45:17.393Z,100.00
2023-03-12T16:47:44.950Z,100.00
2023-03-12T16:50:19.441Z,100.00
2023-03-12T16:52:46.366Z,100.00
2023-03-12T16:55:15.933Z,100.00
2023-03-12T16:57:47.164Z,100.00
2023-03-12T17:00:25.152Z,100.00
2023-03-12T17:02:53.173Z,100.00
2023-03-12T17:05:19.548Z,100.00
2023-03-12T17:07:46.235Z,100.00
2023-03-12T17:10:15.242Z,100.00
2023-03-12T17:12:42.385Z,100.00
2023-03-12T17:15:14.831Z,100.00
2023-03-12T17:17:41.330Z,100.00
2023-03-12T17:20:08.892Z,100.00
2023-03-12T17:22:35.297Z,100.00
2023-03-12T17:25:02.429Z,100.00
2023-03-12T17:27:29.010Z,100.00
2023-03-12T17:29:55.514Z,100.00
2023-03-12T17:32:21.883Z,100.00
2023-03-12T17:34:53.741Z,100.00
2023-03-12T17:37:20.066Z,100.00
2023-03-12T17:39:47.969Z,100.00
2023-03-12T17:42:14.407Z,100.00
2023-03-12T17:44:40.740Z,100.00
2023-03-12T17:47:07.174Z,100.00
2023-03-12T17:49:33.492Z,100.00
2023-03-12T17:52:02.450Z,100.00
2023-03-12T17:54:28.789Z,100.00
2023-03-12T17:56:55.097Z,100.00
2023-03-12T17:59:21.515Z,100.00
2023-03-12T18:01:47.811Z,100.00
2023-03-12T18:04:14.117Z,100.00
2023-03-12T18:06:40.436Z,100.00
2023-03-12T18:09:06.794Z,100.00
2023-03-12T18:11:33.110Z,100.00
2023-03-12T18:13:59.417Z,100.00
2023-03-12T18:16:25.895Z,100.00
2023-03-12T18:18:53.024Z,100.00
2023-03-12T18:21:19.734Z,100.00
2023-03-12T18:23:46.077Z,100.00
2023-03-12T18:26:12.453Z,100.00
2023-03-12T18:28:38.794Z,100.00
2023-03-12T18:31:05.158Z,100.00
2023-03-12T18:33:31.576Z,100.00
2023-03-12T18:35:57.935Z,100.00
2023-03-12T18:38:24.282Z,100.00
2023-03-12T18:40:50.573Z,100.00
2023-03-12T18:43:16.910Z,100.00
2023-03-12T18:45:43.349Z,100.00
2023-03-12T18:48:10.358Z,100.00
2023-03-12T18:50:36.692Z,100.00
2023-03-12T18:53:03.469Z,100.00
2023-03-12T18:55:30.834Z,100.00
2023-03-12T18:57:57.157Z,100.00
2023-03-12T19:00:23.522Z,100.00
2023-03-12T19:02:49.893Z,100.00
2023-03-12T19:05:16.467Z,100.00
2023-03-12T19:07:43.306Z,100.00
2023-03-12T19:10:10.733Z,100.00
2023-03-12T19:12:50.954Z,100.00
2023-03-12T19:15:19.017Z,100.00
2023-03-12T19:17:45.371Z,100.00
2023-03-12T19:20:12.447Z,100.00
2023-03-12T19:22:38.851Z,100.00
2023-03-12T19:25:05.677Z,100.00
2023-03-12T19:27:32.018Z,100.00
2023-03-12T19:29:58.448Z,100.00
2023-03-12T19:32:27.747Z,100.00
2023-03-12T19:34:59.494Z,100.00
2023-03-12T19:37:25.883Z,100.00
2023-03-12T19:39:52.248Z,100.00
2023-03-12T19:42:18.813Z,100.00
2023-03-12T19:44:45.210Z,100.00
2023-03-12T19:47:11.631Z,100.00
2023-03-12T19:49:38.037Z,100.00
2023-03-12T19:52:04.436Z,100.00
2023-03-12T19:54:30.760Z,100.00
2023-03-12T19:56:57.104Z,100.00
2023-03-12T19:59:23.489Z,100.00
2023-03-12T20:01:49.925Z,100.00
2023-03-12T20:04:16.509Z,100.00
2023-03-12T20:06:42.844Z,100.00
2023-03-12T20:09:09.158Z,100.00
2023-03-12T20:11:35.494Z,100.00
2023-03-12T20:14:03.280Z,100.00
2023-03-12T20:16:29.632Z,100.00
2023-03-12T20:18:56.087Z,100.00
2023-03-12T20:21:22.801Z,100.00
2023-03-12T20:23:49.209Z,99.48
2023-03-12T20:26:15.581Z,99.10
2023-03-12T20:28:42.024Z,98.87
2023-03-12T20:31:09.117Z,98.26
2023-03-12T20:33:35.501Z,97.14
2023-03-12T20:36:13.019Z,96.94
2023-03-12T20:38:39.752Z,96.77
2023-03-12T20:41:13.824Z,96.20
2023-03-12T20:43:44.154Z,95.71
2023-03-12T20:46:11.843Z,94.13
2023-03-12T20:48:38.682Z,93.81
2023-03-12T20:51:05.364Z,93.42
2023-03-12T20:53:31.657Z,91.97
2023-03-12T20:55:57.985Z,92.40
2023-03-12T20:58:24.346Z,91.49
2023-03-12T21:00:50.745Z,92.04
2023-03-12T21:03:17.134Z,92.45
2023-03-12T21:05:43.443Z,92.42
2023-03-12T21:08:09.734Z,92.30
2023-03-12T21:10:39.104Z,91.83
2023-03-12T21:13:05.808Z,91.80
2023-03-12T21:15:32.112Z,92.21
2023-03-12T21:17:58.402Z,92.16
2023-03-12T21:20:24.853Z,91.69
2023-03-12T21:22:51.149Z,91.17
2023-03-12T21:25:17.582Z,90.99
2023-03-12T21:27:50.512Z,90.89
2023-03-12T21:30:17.836Z,90.62
2023-03-12T21:32:44.295Z,90.70
2023-03-12T21:35:10.870Z,90.58
2023-03-12T21:37:37.206Z,91.09
2023-03-12T21:40:04.006Z,91.41
2023-03-12T21:42:33.155Z,90.38
2023-03-12T21:44:59.467Z,90.59
2023-03-12T21:47:25.784Z,90.52
2023-03-12T21:49:52.085Z,90.56
2023-03-12T21:52:18.433Z,90.25
2023-03-12T21:54:44.729Z,90.04
2023-03-12T21:57:11.082Z,90.25
2023-03-12T21:59:37.396Z,90.63
2023-03-12T22:02:03.892Z,90.43
2023-03-12T22:04:30.305Z,90.05
2023-03-12T22:06:56.771Z,89.34
2023-03-12T22:09:23.082Z,89.09
2023-03-12T22:11:49.435Z,89.33
2023-03-12T22:14:15.751Z,89.46
2023-03-12T22:16:42.068Z,89.77
2023-03-12T22:19:08.369Z,89.84
2023-03-12T22:21:34.704Z,89.81
2023-03-12T22:24:01.872Z,89.58
2023-03-12T22:26:28.383Z,89.60
2023-03-12T22:28:57.369Z,90.06
2023-03-12T22:31:26.163Z,90.62
2023-03-12T22:33:52.764Z,90.03
2023-03-12T22:36:19.941Z,90.26
2023-03-12T22:38:46.734Z,89.76
2023-03-12T22:41:15.946Z,89.39
2023-03-12T22:43:42.756Z,89.38
2023-03-12T22:46:09.097Z,89.89
2023-03-12T22:48:35.784Z,90.07
2023-03-12T22:51:03.723Z,90.51
2023-03-12T22:53:31.237Z,90.97
2023-03-12T22:55:59.384Z,91.18
2023-03-12T22:58:26.492Z,90.74
2023-03-12T23:01:05.219Z,90.72
2023-03-12T23:03:33.696Z,90.80
2023-03-12T23:06:01.084Z,91.71
2023-03-12T23:08:28.592Z,92.29
2023-03-12T23:11:03.440Z,92.58
2023-03-12T23:13:30.850Z,92.29
2023-03-12T23:16:03.933Z,92.29
2023-03-12T23:18:30.473Z,91.86
2023-03-12T23:21:02.031Z,91.70
2023-03-12T23:23:28.977Z,91.50
2023-03-12T23:25:57.040Z,91.21
2023-03-12T23:28:24.098Z,89.87
2023-03-12T23:30:55.541Z,89.44
2023-03-12T23:33:21.913Z,89.40
2023-03-12T23:36:01.153Z,89.71
2023-03-12T23:38:28.927Z,89.75
2023-03-12T23:41:06.839Z,89.72
2023-03-12T23:43:33.929Z,88.88
2023-03-12T23:46:02.153Z,88.44
2023-03-12T23:48:30.327Z,88.42
2023-03-12T23:51:05.608Z,88.72
2023-03-12T23:53:32.476Z,88.48
2023-03-12T23:56:00.799Z,88.23
2023-03-12T23:58:28.271Z,87.87
